createdAt,value
2022-11-15T00:09:41.013Z,18.40
2022-11-15T00:20:13.638Z,16.70
2022-11-15T00:30:40.920Z,15.80
2022-11-15T00:41:10.255Z,15.20
2022-11-15T00:51:37.776Z,14.50
2022-11-15T01:02:05.234Z,16.30
2022-11-15T01:12:33.100Z,14.70
2022-11-15T01:23:00.463Z,14.50
2022-11-15T01:33:27.938Z,12.80
2022-11-15T01:43:59.281Z,12.20
2022-11-15T01:54:27.711Z,10.90
2022-11-15T02:04:55.176Z,9.90
2022-11-15T02:15:23.073Z,9.60
2022-11-15T02:26:11.235Z,9.20
2022-11-15T02:36:46.084Z,10.00
2022-11-15T02:47:18.327Z,10.00
2022-11-15T02:57:54.396Z,9.20
2022-11-15T03:08:28.384Z,8.90
2022-11-15T03:18:59.856Z,10.30
2022-11-15T03:29:31.221Z,9.10
2022-11-15T03:39:58.746Z,8.20
2022-11-15T03:50:27.859Z,7.70
2022-11-15T04:00:55.232Z,8.30
2022-11-15T04:11:22.552Z,7.00
2022-11-15T04:22:07.136Z,9.90
2022-11-15T04:32:34.440Z,11.00
2022-11-15T04:43:03.878Z,11.80
2022-11-15T04:53:31.879Z,9.00
2022-11-15T05:04:17.563Z,10.70
2022-11-15T05:14:45.477Z,10.90
2022-11-15T05:25:13.505Z,8.80
2022-11-15T05:35:44.448Z,8.60
2022-11-15T05:46:12.238Z,9.60
2022-11-15T05:56:39.683Z,9.90
2022-11-15T06:07:07.073Z,8.30
2022-11-15T06:17:34.484Z,7.10
2022-11-15T06:28:02.509Z,8.00
2022-11-15T06:38:30.225Z,8.80
2022-11-15T06:48:57.665Z,6.90
2022-11-15T06:59:25.037Z,6.40
2022-11-15T07:09:52.363Z,6.60
2022-11-15T07:20:20.619Z,6.30
2022-11-15T07:30:49.538Z,7.70
2022-11-15T07:41:16.839Z,8.00
2022-11-15T07:51:44.167Z,7.40
2022-11-15T08:02:13.480Z,9.10
2022-11-15T08:12:41.559Z,8.00
2022-11-15T08:23:10.475Z,10.20
2022-11-15T08:33:39.007Z,9.50
2022-11-15T08:44:06.597Z,10.80
2022-11-15T08:54:33.961Z,11.20
2022-11-15T09:05:01.264Z,8.60
2022-11-15T09:15:28.687Z,11.10
2022-11-15T09:26:00.195Z,9.90
2022-11-15T09:36:27.759Z,10.60
2022-11-15T09:47:07.478Z,12.90
2022-11-15T09:57:44.287Z,11.70
2022-11-15T10:08:27.753Z,12.50
2022-11-15T10:19:03.394Z,12.50
2022-11-15T10:29:30.790Z,13.00
2022-11-15T10:40:16.493Z,14.70
2022-11-15T10:50:45.769Z,15.80
2022-11-15T11:01:19.249Z,15.70
2022-11-15T11:11:52.751Z,19.10
2022-11-15T11:22:28.852Z,17.70
2022-11-15T11:33:11.437Z,20.80
2022-11-15T11:43:50.885Z,16.00
2022-11-15T11:54:25.112Z,18.90
2022-11-15T12:04:55.283Z,17.90
2022-11-15T12:15:26.599Z,17.10
2022-11-15T12:25:57.947Z,22.50
2022-11-15T12:36:43.539Z,20.90
2022-11-15T12:47:27.059Z,19.20
2022-11-15T12:57:56.163Z,21.60
2022-11-15T13:08:41.857Z,22.80
2022-11-15T13:19:12.533Z,22.10
2022-11-15T13:29:40.001Z,21.90
2022-11-15T13:40:28.711Z,22.70
2022-11-15T13:50:56.063Z,24.60
2022-11-15T14:01:25.031Z,23.40
2022-11-15T14:11:57.530Z,24.10
2022-11-15T14:22:29.268Z,26.80
2022-11-15T14:32:56.738Z,26.30
2022-11-15T14:43:24.421Z,26.10
2022-11-15T14:53:52.175Z,20.20
2022-11-15T15:04:19.515Z,21.00
2022-11-15T15:14:47.252Z,44.40
2022-11-15T15:25:28.326Z,22.50
2022-11-15T15:35:55.947Z,18.60
2022-11-15T15:46:23.759Z,21.90
2022-11-15T15:56:55.952Z,20.70
2022-11-15T16:07:25.719Z,21.70
2022-11-15T16:17:55.993Z,21.60
2022-11-15T16:28:27.479Z,15.80
2022-11-15T16:38:54.977Z,17.70
2022-11-15T16:49:23.417Z,16.60
2022-11-15T17:10:17.173Z,19.10
2022-11-15T17:20:44.936Z,18.80
2022-11-15T17:31:13.651Z,18.50
2022-11-15T17:41:40.888Z,20.50
2022-11-15T17:52:08.834Z,22.80
2022-11-15T18:02:36.208Z,26.10
2022-11-15T18:13:03.529Z,20.70
2022-11-15T18:23:31.289Z,33.70
2022-11-15T18:44:26.819Z,21.70
2022-11-15T18:54:54.187Z,26.10
2022-11-15T19:05:21.586Z,30.50
2022-11-15T19:15:48.853Z,32.20
2022-11-15T19:26:17.795Z,33.60
2022-11-15T19:36:46.380Z,34.40
2022-11-15T19:47:13.704Z,36.20
2022-11-15T19:57:40.985Z,29.50
2022-11-15T20:08:08.737Z,36.20
2022-11-15T20:18:36.568Z,32.70
2022-11-15T20:29:04.118Z,34.20
2022-11-15T20:39:31.546Z,41.50
2022-11-15T20:50:14.840Z,35.60
2022-11-15T21:00:46.940Z,33.20
2022-11-15T21:11:31.566Z,31.20
2022-11-15T21:21:58.909Z,30.30
2022-11-15T21:32:26.169Z,34.40
2022-11-15T21:42:53.435Z,45.50
2022-11-15T21:53:20.754Z,40.90
2022-11-15T22:03:48.412Z,37.40
2022-11-15T22:14:15.697Z,33.60
2022-11-15T22:24:43.004Z,41.40
2022-11-15T22:35:11.271Z,42.70
2022-11-15T22:45:38.760Z,47.00
2022-11-15T22:56:07.484Z,41.10
2022-11-15T23:06:34.834Z,41.50
2022-11-15T23:17:02.127Z,43.00
2022-11-15T23:27:29.390Z,41.90
2022-11-15T23:37:56.771Z,45.20
2022-11-15T23:48:24.462Z,46.00
2022-11-15T23:58:52.194Z,47.70
